Terminal Aerodrome Forecast
Issued by NWS Wakefield, VA

Home | Current Version | Previous Version | Text Only | Print | Product List | Glossary On
Versions: 1 2 3 4 5 6 7 8 9 10 11 12 13 14 15
230
FTUS41 KAKQ 302328
TAFSBY
TAF
KSBY 302328Z 3100/3124 13008KT P6SM OVC050
     FM310700 12009KT P6SM VCSH OVC040
     FM310900 13009KT P6SM -SHRA OVC030
     FM311200 13015G23KT 3SM SHRA OVC015
     FM311600 14016G25KT 3SM SHRA OVC010
     FM311800 15017G28KT 3SM SHRA OVC005 WS020/18045KT=

USA.gov is the U.S. government's official web portal to all federal, state and local government web resources and services.